sensor_id;sensor_type;location;lat;lon;timestamp;P1;durP1;ratioP1;P2;durP2;ratioP2
51465;SDS011;37542;50.164;9.086;2022-10-16T00:03:34;2.75;;;1.27;;
51465;SDS011;37542;50.164;9.086;2022-10-16T00:07:15;2.42;;;1.50;;
51465;SDS011;37542;50.164;9.086;2022-10-16T00:11:00;2.13;;;1.35;;
51465;SDS011;37542;50.164;9.086;2022-10-16T00:14:47;2.08;;;1.35;;
51465;SDS011;37542;50.164;9.086;2022-10-16T00:18:28;2.80;;;1.30;;
51465;SDS011;37542;50.164;9.086;2022-10-16T00:22:09;2.97;;;1.30;;
51465;SDS011;37542;50.164;9.086;2022-10-16T00:25:56;1.50;;;1.23;;
51465;SDS011;37542;50.164;9.086;2022-10-16T00:29:43;3.33;;;1.42;;
51465;SDS011;37542;50.164;9.086;2022-10-16T00:33:24;2.90;;;1.30;;
51465;SDS011;37542;50.164;9.086;2022-10-16T00:37:05;2.30;;;1.30;;
51465;SDS011;37542;50.164;9.086;2022-10-16T00:40:45;1.45;;;1.27;;
51465;SDS011;37542;50.164;9.086;2022-10-16T00:48:27;3.65;;;1.60;;
51465;SDS011;37542;50.164;9.086;2022-10-16T00:52:09;2.47;;;1.70;;
51465;SDS011;37542;50.164;9.086;2022-10-16T00:55:52;3.08;;;1.55;;
51465;SDS011;37542;50.164;9.086;2022-10-16T00:59:37;2.70;;;1.30;;
51465;SDS011;37542;50.164;9.086;2022-10-16T01:11:00;3.78;;;1.40;;
51465;SDS011;37542;50.164;9.086;2022-10-16T01:18:58;1.20;;;1.10;;
51465;SDS011;37542;50.164;9.086;2022-10-16T01:23:36;2.15;;;1.20;;
51465;SDS011;37542;50.164;9.086;2022-10-16T01:27:30;1.17;;;1.08;;
51465;SDS011;37542;50.164;9.086;2022-10-16T01:31:17;2.47;;;1.17;;
51465;SDS011;37542;50.164;9.086;2022-10-16T01:38:54;1.88;;;1.13;;
51465;SDS011;37542;50.164;9.086;2022-10-16T01:42:42;1.42;;;0.93;;
51465;SDS011;37542;50.164;9.086;2022-10-16T01:46:30;1.13;;;1.10;;
51465;SDS011;37542;50.164;9.086;2022-10-16T01:50:14;1.58;;;0.95;;
51465;SDS011;37542;50.164;9.086;2022-10-16T01:53:59;1.10;;;1.00;;
51465;SDS011;37542;50.164;9.086;2022-10-16T01:57:42;1.15;;;1.05;;
51465;SDS011;37542;50.164;9.086;2022-10-16T02:01:29;2.92;;;0.88;;
51465;SDS011;37542;50.164;9.086;2022-10-16T02:09:07;1.58;;;0.90;;
51465;SDS011;37542;50.164;9.086;2022-10-16T02:17:12;0.65;;;0.57;;
51465;SDS011;37542;50.164;9.086;2022-10-16T02:21:02;0.95;;;0.68;;
51465;SDS011;37542;50.164;9.086;2022-10-16T02:29:00;2.00;;;0.60;;
51465;SDS011;37542;50.164;9.086;2022-10-16T02:32:47;0.88;;;0.70;;
51465;SDS011;37542;50.164;9.086;2022-10-16T02:36:29;0.70;;;0.70;;
51465;SDS011;37542;50.164;9.086;2022-10-16T02:40:11;0.73;;;0.60;;
51465;SDS011;37542;50.164;9.086;2022-10-16T02:43:52;2.83;;;0.80;;
51465;SDS011;37542;50.164;9.086;2022-10-16T02:47:35;0.85;;;0.85;;
51465;SDS011;37542;50.164;9.086;2022-10-16T02:51:15;1.00;;;0.80;;
51465;SDS011;37542;50.164;9.086;2022-10-16T02:54:56;0.80;;;0.80;;
51465;SDS011;37542;50.164;9.086;2022-10-16T02:58:37;2.03;;;0.85;;
51465;SDS011;37542;50.164;9.086;2022-10-16T03:02:18;1.17;;;0.80;;
51465;SDS011;37542;50.164;9.086;2022-10-16T03:05:58;1.15;;;0.77;;
51465;SDS011;37542;50.164;9.086;2022-10-16T03:09:39;0.95;;;0.70;;
51465;SDS011;37542;50.164;9.086;2022-10-16T03:13:20;1.65;;;1.00;;
51465;SDS011;37542;50.164;9.086;2022-10-16T03:17:01;1.05;;;0.95;;
51465;SDS011;37542;50.164;9.086;2022-10-16T03:20:44;2.03;;;0.98;;
51465;SDS011;37542;50.164;9.086;2022-10-16T03:24:25;0.55;;;0.55;;
51465;SDS011;37542;50.164;9.086;2022-10-16T03:28:06;0.95;;;0.85;;
51465;SDS011;37542;50.164;9.086;2022-10-16T03:31:47;0.60;;;0.50;;
51465;SDS011;37542;50.164;9.086;2022-10-16T03:35:29;1.42;;;1.05;;
51465;SDS011;37542;50.164;9.086;2022-10-16T03:39:10;1.75;;;0.85;;
51465;SDS011;37542;50.164;9.086;2022-10-16T03:42:50;0.63;;;0.60;;
51465;SDS011;37542;50.164;9.086;2022-10-16T03:46:31;2.42;;;0.88;;
51465;SDS011;37542;50.164;9.086;2022-10-16T03:50:12;1.75;;;0.88;;
51465;SDS011;37542;50.164;9.086;2022-10-16T03:53:53;2.55;;;1.25;;
51465;SDS011;37542;50.164;9.086;2022-10-16T03:57:33;1.70;;;0.70;;
51465;SDS011;37542;50.164;9.086;2022-10-16T04:01:14;0.88;;;0.73;;
51465;SDS011;37542;50.164;9.086;2022-10-16T04:04:55;2.42;;;0.80;;
51465;SDS011;37542;50.164;9.086;2022-10-16T04:08:36;2.65;;;1.30;;
51465;SDS011;37542;50.164;9.086;2022-10-16T04:12:19;2.85;;;1.00;;
51465;SDS011;37542;50.164;9.086;2022-10-16T04:15:59;3.38;;;1.05;;
51465;SDS011;37542;50.164;9.086;2022-10-16T04:19:40;1.42;;;1.10;;
51465;SDS011;37542;50.164;9.086;2022-10-16T04:23:21;1.98;;;1.10;;
51465;SDS011;37542;50.164;9.086;2022-10-16T04:27:03;3.50;;;1.25;;
51465;SDS011;37542;50.164;9.086;2022-10-16T04:30:44;1.35;;;1.25;;
51465;SDS011;37542;50.164;9.086;2022-10-16T04:34:24;1.23;;;1.13;;
51465;SDS011;37542;50.164;9.086;2022-10-16T04:38:05;1.67;;;1.38;;
51465;SDS011;37542;50.164;9.086;2022-10-16T04:41:46;1.33;;;1.23;;
51465;SDS011;37542;50.164;9.086;2022-10-16T04:45:26;2.33;;;1.52;;
51465;SDS011;37542;50.164;9.086;2022-10-16T04:49:07;1.55;;;1.30;;
51465;SDS011;37542;50.164;9.086;2022-10-16T04:52:48;4.05;;;1.60;;
51465;SDS011;37542;50.164;9.086;2022-10-16T04:56:29;1.30;;;1.20;;
51465;SDS011;37542;50.164;9.086;2022-10-16T05:00:10;1.90;;;1.30;;
51465;SDS011;37542;50.164;9.086;2022-10-16T05:03:51;1.40;;;1.27;;
51465;SDS011;37542;50.164;9.086;2022-10-16T05:07:32;2.55;;;1.40;;
51465;SDS011;37542;50.164;9.086;2022-10-16T05:11:12;3.15;;;1.42;;
51465;SDS011;37542;50.164;9.086;2022-10-16T05:14:53;2.53;;;1.50;;
51465;SDS011;37542;50.164;9.086;2022-10-16T05:18:38;3.53;;;2.38;;
51465;SDS011;37542;50.164;9.086;2022-10-16T05:22:19;6.88;;;2.00;;
51465;SDS011;37542;50.164;9.086;2022-10-16T05:25:59;1.50;;;1.20;;
51465;SDS011;37542;50.164;9.086;2022-10-16T05:29:40;3.75;;;1.55;;
51465;SDS011;37542;50.164;9.086;2022-10-16T05:33:22;3.25;;;2.15;;
51465;SDS011;37542;50.164;9.086;2022-10-16T05:37:05;2.20;;;1.67;;
51465;SDS011;37542;50.164;9.086;2022-10-16T05:40:55;2.22;;;1.80;;
51465;SDS011;37542;50.164;9.086;2022-10-16T05:44:36;2.30;;;1.60;;
51465;SDS011;37542;50.164;9.086;2022-10-16T05:48:17;1.95;;;1.65;;
51465;SDS011;37542;50.164;9.086;2022-10-16T05:51:57;2.28;;;1.60;;
51465;SDS011;37542;50.164;9.086;2022-10-16T05:55:38;1.67;;;1.20;;
51465;SDS011;37542;50.164;9.086;2022-10-16T05:59:19;2.20;;;1.40;;
51465;SDS011;37542;50.164;9.086;2022-10-16T06:03:00;1.90;;;1.60;;
51465;SDS011;37542;50.164;9.086;2022-10-16T06:06:40;2.30;;;1.38;;
51465;SDS011;37542;50.164;9.086;2022-10-16T06:10:22;6.35;;;3.55;;
51465;SDS011;37542;50.164;9.086;2022-10-16T06:14:03;2.95;;;2.08;;
51465;SDS011;37542;50.164;9.086;2022-10-16T06:17:46;2.10;;;1.88;;
51465;SDS011;37542;50.164;9.086;2022-10-16T06:21:28;2.85;;;2.20;;
51465;SDS011;37542;50.164;9.086;2022-10-16T06:25:09;4.40;;;2.15;;
51465;SDS011;37542;50.164;9.086;2022-10-16T06:28:50;3.33;;;2.08;;
51465;SDS011;37542;50.164;9.086;2022-10-16T06:32:31;2.97;;;2.30;;
51465;SDS011;37542;50.164;9.086;2022-10-16T06:36:12;2.67;;;2.05;;
51465;SDS011;37542;50.164;9.086;2022-10-16T06:39:56;3.55;;;2.08;;
51465;SDS011;37542;50.164;9.086;2022-10-16T06:43:36;3.10;;;2.10;;
51465;SDS011;37542;50.164;9.086;2022-10-16T06:47:17;3.05;;;2.00;;
51465;SDS011;37542;50.164;9.086;2022-10-16T06:50:59;4.43;;;3.60;;
51465;SDS011;37542;50.164;9.086;2022-10-16T06:54:47;5.07;;;4.22;;
51465;SDS011;37542;50.164;9.086;2022-10-16T06:58:27;5.28;;;3.80;;
51465;SDS011;37542;50.164;9.086;2022-10-16T07:02:08;9.00;;;7.53;;
51465;SDS011;37542;50.164;9.086;2022-10-16T07:05:49;6.70;;;4.72;;
51465;SDS011;37542;50.164;9.086;2022-10-16T07:09:30;4.18;;;3.30;;
51465;SDS011;37542;50.164;9.086;2022-10-16T07:13:11;4.68;;;3.00;;
51465;SDS011;37542;50.164;9.086;2022-10-16T07:16:55;3.58;;;2.28;;
51465;SDS011;37542;50.164;9.086;2022-10-16T07:20:35;6.70;;;3.83;;
51465;SDS011;37542;50.164;9.086;2022-10-16T07:24:17;10.55;;;6.53;;
51465;SDS011;37542;50.164;9.086;2022-10-16T07:27:58;4.03;;;2.40;;
51465;SDS011;37542;50.164;9.086;2022-10-16T07:31:39;3.03;;;2.10;;
51465;SDS011;37542;50.164;9.086;2022-10-16T07:35:21;6.50;;;2.38;;
51465;SDS011;37542;50.164;9.086;2022-10-16T07:39:01;3.30;;;2.10;;
51465;SDS011;37542;50.164;9.086;2022-10-16T07:42:42;5.25;;;2.53;;
51465;SDS011;37542;50.164;9.086;2022-10-16T07:46:23;3.15;;;2.00;;
51465;SDS011;37542;50.164;9.086;2022-10-16T07:50:04;3.80;;;1.80;;
51465;SDS011;37542;50.164;9.086;2022-10-16T07:53:45;2.03;;;1.60;;
51465;SDS011;37542;50.164;9.086;2022-10-16T07:57:27;3.97;;;2.05;;
51465;SDS011;37542;50.164;9.086;2022-10-16T08:01:12;2.88;;;1.50;;
51465;SDS011;37542;50.164;9.086;2022-10-16T08:04:55;3.60;;;1.50;;
51465;SDS011;37542;50.164;9.086;2022-10-16T08:08:35;1.70;;;1.60;;
51465;SDS011;37542;50.164;9.086;2022-10-16T08:12:16;3.75;;;1.92;;
51465;SDS011;37542;50.164;9.086;2022-10-16T08:15:57;4.10;;;2.25;;
51465;SDS011;37542;50.164;9.086;2022-10-16T08:19:38;2.78;;;1.98;;
51465;SDS011;37542;50.164;9.086;2022-10-16T08:23:19;2.08;;;1.80;;
51465;SDS011;37542;50.164;9.086;2022-10-16T08:27:00;2.15;;;1.52;;
51465;SDS011;37542;50.164;9.086;2022-10-16T08:30:40;4.00;;;1.60;;
51465;SDS011;37542;50.164;9.086;2022-10-16T08:34:21;2.78;;;1.52;;
51465;SDS011;37542;50.164;9.086;2022-10-16T08:38:05;1.98;;;1.35;;
51465;SDS011;37542;50.164;9.086;2022-10-16T08:49:55;2.30;;;1.48;;
51465;SDS011;37542;50.164;9.086;2022-10-16T08:57:38;5.55;;;1.60;;
51465;SDS011;37542;50.164;9.086;2022-10-16T09:01:20;3.10;;;1.38;;
51465;SDS011;37542;50.164;9.086;2022-10-16T09:05:31;1.55;;;1.05;;
51465;SDS011;37542;50.164;9.086;2022-10-16T09:10:37;3.03;;;1.48;;
51465;SDS011;37542;50.164;9.086;2022-10-16T09:14:29;1.60;;;1.27;;
51465;SDS011;37542;50.164;9.086;2022-10-16T09:18:37;1.80;;;1.50;;
51465;SDS011;37542;50.164;9.086;2022-10-16T09:22:33;1.52;;;1.25;;
51465;SDS011;37542;50.164;9.086;2022-10-16T09:26:14;5.13;;;1.80;;
51465;SDS011;37542;50.164;9.086;2022-10-16T09:29:56;1.65;;;1.45;;
51465;SDS011;37542;50.164;9.086;2022-10-16T09:33:54;2.00;;;1.30;;
51465;SDS011;37542;50.164;9.086;2022-10-16T09:37:42;1.20;;;1.00;;
51465;SDS011;37542;50.164;9.086;2022-10-16T09:41:26;1.25;;;1.10;;
51465;SDS011;37542;50.164;9.086;2022-10-16T09:45:19;2.15;;;1.23;;
51465;SDS011;37542;50.164;9.086;2022-10-16T09:49:05;3.55;;;1.65;;
51465;SDS011;37542;50.164;9.086;2022-10-16T09:53:11;3.78;;;1.30;;
51465;SDS011;37542;50.164;9.086;2022-10-16T09:57:03;1.90;;;1.40;;
51465;SDS011;37542;50.164;9.086;2022-10-16T10:00:50;2.65;;;1.40;;
51465;SDS011;37542;50.164;9.086;2022-10-16T10:04:38;2.80;;;1.52;;
51465;SDS011;37542;50.164;9.086;2022-10-16T10:08:28;2.53;;;1.38;;
51465;SDS011;37542;50.164;9.086;2022-10-16T10:12:17;2.17;;;1.48;;
51465;SDS011;37542;50.164;9.086;2022-10-16T10:16:04;3.33;;;1.60;;
51465;SDS011;37542;50.164;9.086;2022-10-16T10:19:46;2.28;;;1.60;;
51465;SDS011;37542;50.164;9.086;2022-10-16T10:23:42;2.33;;;1.58;;
51465;SDS011;37542;50.164;9.086;2022-10-16T10:27:26;2.35;;;1.60;;
51465;SDS011;37542;50.164;9.086;2022-10-16T10:31:26;1.90;;;1.58;;
51465;SDS011;37542;50.164;9.086;2022-10-16T10:39:55;1.63;;;1.50;;
51465;SDS011;37542;50.164;9.086;2022-10-16T10:56:40;2.15;;;1.63;;
51465;SDS011;37542;50.164;9.086;2022-10-16T11:08:53;2.85;;;1.85;;
51465;SDS011;37542;50.164;9.086;2022-10-16T11:12:59;2.28;;;1.70;;
51465;SDS011;37542;50.164;9.086;2022-10-16T11:17:06;2.58;;;2.00;;
51465;SDS011;37542;50.164;9.086;2022-10-16T11:21:14;3.13;;;1.73;;
51465;SDS011;37542;50.164;9.086;2022-10-16T11:25:12;2.55;;;1.60;;
51465;SDS011;37542;50.164;9.086;2022-10-16T11:29:07;3.45;;;1.75;;
51465;SDS011;37542;50.164;9.086;2022-10-16T11:48:48;3.30;;;1.45;;
51465;SDS011;37542;50.164;9.086;2022-10-16T11:52:44;1.58;;;1.25;;
51465;SDS011;37542;50.164;9.086;2022-10-16T11:57:11;3.88;;;2.72;;
51465;SDS011;37542;50.164;9.086;2022-10-16T12:04:51;3.03;;;1.55;;
51465;SDS011;37542;50.164;9.086;2022-10-16T12:08:51;2.30;;;1.60;;
51465;SDS011;37542;50.164;9.086;2022-10-16T12:19:59;3.42;;;1.55;;
51465;SDS011;37542;50.164;9.086;2022-10-16T12:24:02;2.30;;;1.80;;
51465;SDS011;37542;50.164;9.086;2022-10-16T12:27:44;1.80;;;1.35;;
51465;SDS011;37542;50.164;9.086;2022-10-16T12:31:25;3.80;;;1.80;;
51465;SDS011;37542;50.164;9.086;2022-10-16T12:35:24;2.20;;;1.60;;
51465;SDS011;37542;50.164;9.086;2022-10-16T12:39:20;1.85;;;1.48;;
51465;SDS011;37542;50.164;9.086;2022-10-16T12:47:22;1.50;;;1.30;;
51465;SDS011;37542;50.164;9.086;2022-10-16T12:51:22;3.45;;;1.40;;
51465;SDS011;37542;50.164;9.086;2022-10-16T12:55:14;2.45;;;1.70;;
51465;SDS011;37542;50.164;9.086;2022-10-16T13:19:24;1.63;;;1.10;;
51465;SDS011;37542;50.164;9.086;2022-10-16T13:23:26;3.40;;;1.70;;
51465;SDS011;37542;50.164;9.086;2022-10-16T13:27:42;1.20;;;1.05;;
51465;SDS011;37542;50.164;9.086;2022-10-16T13:31:41;3.70;;;1.60;;
51465;SDS011;37542;50.164;9.086;2022-10-16T13:35:26;2.60;;;1.67;;
51465;SDS011;37542;50.164;9.086;2022-10-16T13:39:14;1.20;;;1.08;;
51465;SDS011;37542;50.164;9.086;2022-10-16T13:43:02;3.05;;;1.38;;
51465;SDS011;37542;50.164;9.086;2022-10-16T13:46:42;2.15;;;1.58;;
51465;SDS011;37542;50.164;9.086;2022-10-16T13:50:26;1.35;;;1.20;;
51465;SDS011;37542;50.164;9.086;2022-10-16T13:54:09;1.33;;;1.10;;
51465;SDS011;37542;50.164;9.086;2022-10-16T13:57:51;1.95;;;1.40;;
51465;SDS011;37542;50.164;9.086;2022-10-16T14:01:40;2.08;;;1.45;;
51465;SDS011;37542;50.164;9.086;2022-10-16T14:05:23;3.72;;;1.42;;
51465;SDS011;37542;50.164;9.086;2022-10-16T14:09:05;1.40;;;1.10;;
51465;SDS011;37542;50.164;9.086;2022-10-16T14:13:07;1.92;;;1.52;;
51465;SDS011;37542;50.164;9.086;2022-10-16T14:16:58;1.40;;;1.30;;
51465;SDS011;37542;50.164;9.086;2022-10-16T14:20:39;1.35;;;1.23;;
51465;SDS011;37542;50.164;9.086;2022-10-16T14:24:41;1.45;;;1.35;;
51465;SDS011;37542;50.164;9.086;2022-10-16T14:28:24;1.95;;;1.50;;
51465;SDS011;37542;50.164;9.086;2022-10-16T14:32:05;2.38;;;1.40;;
51465;SDS011;37542;50.164;9.086;2022-10-16T14:39:53;1.65;;;1.10;;
51465;SDS011;37542;50.164;9.086;2022-10-16T14:43:36;1.25;;;1.10;;
51465;SDS011;37542;50.164;9.086;2022-10-16T14:47:21;2.58;;;1.60;;
51465;SDS011;37542;50.164;9.086;2022-10-16T14:51:08;1.55;;;1.35;;
51465;SDS011;37542;50.164;9.086;2022-10-16T14:54:54;4.18;;;1.70;;
51465;SDS011;37542;50.164;9.086;2022-10-16T14:58:36;1.83;;;1.50;;
51465;SDS011;37542;50.164;9.086;2022-10-16T15:06:13;3.00;;;1.80;;
51465;SDS011;37542;50.164;9.086;2022-10-16T15:09:55;1.38;;;1.25;;
51465;SDS011;37542;50.164;9.086;2022-10-16T15:13:37;2.25;;;1.48;;
51465;SDS011;37542;50.164;9.086;2022-10-16T15:17:17;2.38;;;1.80;;
51465;SDS011;37542;50.164;9.086;2022-10-16T15:20:58;2.65;;;1.80;;
51465;SDS011;37542;50.164;9.086;2022-10-16T15:24:39;3.45;;;1.95;;
51465;SDS011;37542;50.164;9.086;2022-10-16T15:28:20;3.83;;;2.10;;
51465;SDS011;37542;50.164;9.086;2022-10-16T15:32:04;2.40;;;1.90;;
51465;SDS011;37542;50.164;9.086;2022-10-16T15:35:49;3.17;;;1.80;;
51465;SDS011;37542;50.164;9.086;2022-10-16T15:39:31;4.88;;;1.80;;
51465;SDS011;37542;50.164;9.086;2022-10-16T15:43:12;7.68;;;4.68;;
51465;SDS011;37542;50.164;9.086;2022-10-16T15:46:54;15.57;;;8.43;;
51465;SDS011;37542;50.164;9.086;2022-10-16T15:50:35;4.97;;;3.30;;
51465;SDS011;37542;50.164;9.086;2022-10-16T15:54:18;3.75;;;2.28;;
51465;SDS011;37542;50.164;9.086;2022-10-16T15:58:02;2.67;;;1.75;;
51465;SDS011;37542;50.164;9.086;2022-10-16T16:01:44;2.08;;;1.63;;
51465;SDS011;37542;50.164;9.086;2022-10-16T16:05:25;3.25;;;1.70;;
51465;SDS011;37542;50.164;9.086;2022-10-16T16:09:07;4.78;;;1.67;;
51465;SDS011;37542;50.164;9.086;2022-10-16T16:12:48;1.85;;;1.20;;
51465;SDS011;37542;50.164;9.086;2022-10-16T16:16:31;2.42;;;1.20;;
51465;SDS011;37542;50.164;9.086;2022-10-16T16:23:58;2.17;;;1.20;;
51465;SDS011;37542;50.164;9.086;2022-10-16T16:27:39;2.80;;;1.30;;
51465;SDS011;37542;50.164;9.086;2022-10-16T16:31:20;2.28;;;1.35;;
51465;SDS011;37542;50.164;9.086;2022-10-16T16:35:05;3.07;;;1.70;;
51465;SDS011;37542;50.164;9.086;2022-10-16T16:38:46;2.72;;;1.80;;
51465;SDS011;37542;50.164;9.086;2022-10-16T16:42:30;4.80;;;2.00;;
51465;SDS011;37542;50.164;9.086;2022-10-16T16:46:11;3.15;;;2.35;;
51465;SDS011;37542;50.164;9.086;2022-10-16T16:49:55;8.95;;;6.00;;
51465;SDS011;37542;50.164;9.086;2022-10-16T16:53:36;15.55;;;8.18;;
51465;SDS011;37542;50.164;9.086;2022-10-16T16:57:20;13.00;;;7.43;;
51465;SDS011;37542;50.164;9.086;2022-10-16T17:01:01;13.10;;;7.65;;
51465;SDS011;37542;50.164;9.086;2022-10-16T17:04:43;10.85;;;5.85;;
51465;SDS011;37542;50.164;9.086;2022-10-16T17:08:23;6.47;;;4.70;;
51465;SDS011;37542;50.164;9.086;2022-10-16T17:12:04;6.00;;;3.65;;
51465;SDS011;37542;50.164;9.086;2022-10-16T17:15:46;5.65;;;3.13;;
51465;SDS011;37542;50.164;9.086;2022-10-16T17:19:27;5.28;;;3.30;;
51465;SDS011;37542;50.164;9.086;2022-10-16T17:23:09;4.72;;;3.83;;
51465;SDS011;37542;50.164;9.086;2022-10-16T17:26:51;3.95;;;2.90;;
51465;SDS011;37542;50.164;9.086;2022-10-16T17:30:32;4.07;;;2.65;;
51465;SDS011;37542;50.164;9.086;2022-10-16T17:34:14;5.88;;;2.75;;
51465;SDS011;37542;50.164;9.086;2022-10-16T17:37:56;5.45;;;2.92;;
51465;SDS011;37542;50.164;9.086;2022-10-16T17:41:37;8.48;;;3.50;;
51465;SDS011;37542;50.164;9.086;2022-10-16T17:45:18;6.43;;;3.47;;
51465;SDS011;37542;50.164;9.086;2022-10-16T17:48:59;4.35;;;2.92;;
51465;SDS011;37542;50.164;9.086;2022-10-16T17:52:39;6.18;;;3.47;;
51465;SDS011;37542;50.164;9.086;2022-10-16T17:56:20;6.80;;;3.90;;
51465;SDS011;37542;50.164;9.086;2022-10-16T18:00:03;5.07;;;3.00;;
51465;SDS011;37542;50.164;9.086;2022-10-16T18:03:51;2.83;;;2.25;;
51465;SDS011;37542;50.164;9.086;2022-10-16T18:07:41;5.90;;;2.83;;
51465;SDS011;37542;50.164;9.086;2022-10-16T18:11:22;4.78;;;3.05;;
51465;SDS011;37542;50.164;9.086;2022-10-16T18:15:03;5.30;;;3.03;;
51465;SDS011;37542;50.164;9.086;2022-10-16T18:18:45;7.35;;;3.50;;
51465;SDS011;37542;50.164;9.086;2022-10-16T18:22:27;6.43;;;3.25;;
51465;SDS011;37542;50.164;9.086;2022-10-16T18:26:10;5.82;;;3.10;;
51465;SDS011;37542;50.164;9.086;2022-10-16T18:29:52;6.28;;;3.15;;
51465;SDS011;37542;50.164;9.086;2022-10-16T18:33:48;5.05;;;3.25;;
51465;SDS011;37542;50.164;9.086;2022-10-16T18:37:30;5.65;;;3.22;;
51465;SDS011;37542;50.164;9.086;2022-10-16T18:41:13;3.95;;;2.90;;
51465;SDS011;37542;50.164;9.086;2022-10-16T18:44:58;6.03;;;3.33;;
51465;SDS011;37542;50.164;9.086;2022-10-16T18:48:40;5.18;;;2.60;;
51465;SDS011;37542;50.164;9.086;2022-10-16T18:52:21;3.95;;;2.20;;
51465;SDS011;37542;50.164;9.086;2022-10-16T18:56:03;3.47;;;2.30;;
51465;SDS011;37542;50.164;9.086;2022-10-16T18:59:44;7.28;;;2.55;;
51465;SDS011;37542;50.164;9.086;2022-10-16T19:03:25;4.22;;;2.53;;
51465;SDS011;37542;50.164;9.086;2022-10-16T19:07:06;2.90;;;2.35;;
51465;SDS011;37542;50.164;9.086;2022-10-16T19:10:47;4.47;;;2.80;;
51465;SDS011;37542;50.164;9.086;2022-10-16T19:14:28;6.18;;;3.20;;
51465;SDS011;37542;50.164;9.086;2022-10-16T19:18:09;4.80;;;2.60;;
51465;SDS011;37542;50.164;9.086;2022-10-16T19:21:50;6.18;;;2.50;;
51465;SDS011;37542;50.164;9.086;2022-10-16T19:25:37;3.72;;;2.83;;
51465;SDS011;37542;50.164;9.086;2022-10-16T19:29:19;5.70;;;2.92;;
51465;SDS011;37542;50.164;9.086;2022-10-16T19:32:59;4.78;;;2.70;;
51465;SDS011;37542;50.164;9.086;2022-10-16T19:36:40;3.40;;;2.40;;
51465;SDS011;37542;50.164;9.086;2022-10-16T19:40:21;4.70;;;2.50;;
51465;SDS011;37542;50.164;9.086;2022-10-16T19:44:02;3.10;;;2.30;;
51465;SDS011;37542;50.164;9.086;2022-10-16T19:47:47;4.00;;;2.60;;
51465;SDS011;37542;50.164;9.086;2022-10-16T19:51:28;7.15;;;2.70;;
51465;SDS011;37542;50.164;9.086;2022-10-16T19:55:09;4.40;;;2.50;;
51465;SDS011;37542;50.164;9.086;2022-10-16T19:58:50;6.07;;;2.60;;
51465;SDS011;37542;50.164;9.086;2022-10-16T20:02:34;9.77;;;6.88;;
51465;SDS011;37542;50.164;9.086;2022-10-16T20:06:16;5.85;;;3.97;;
51465;SDS011;37542;50.164;9.086;2022-10-16T20:10:01;4.85;;;3.15;;
51465;SDS011;37542;50.164;9.086;2022-10-16T20:13:42;7.63;;;3.42;;
51465;SDS011;37542;50.164;9.086;2022-10-16T20:17:23;5.95;;;3.67;;
51465;SDS011;37542;50.164;9.086;2022-10-16T20:21:11;5.22;;;3.08;;
51465;SDS011;37542;50.164;9.086;2022-10-16T20:24:55;5.80;;;3.35;;
51465;SDS011;37542;50.164;9.086;2022-10-16T20:28:37;5.00;;;3.25;;
51465;SDS011;37542;50.164;9.086;2022-10-16T20:32:20;5.50;;;3.22;;
51465;SDS011;37542;50.164;9.086;2022-10-16T20:36:00;3.47;;;2.53;;
51465;SDS011;37542;50.164;9.086;2022-10-16T20:39:41;6.95;;;3.47;;
51465;SDS011;37542;50.164;9.086;2022-10-16T20:43:23;4.60;;;3.30;;
51465;SDS011;37542;50.164;9.086;2022-10-16T20:47:04;5.82;;;3.75;;
51465;SDS011;37542;50.164;9.086;2022-10-16T20:50:45;8.43;;;3.88;;
51465;SDS011;37542;50.164;9.086;2022-10-16T20:54:25;7.32;;;4.00;;
51465;SDS011;37542;50.164;9.086;2022-10-16T20:58:09;4.85;;;3.42;;
51465;SDS011;37542;50.164;9.086;2022-10-16T21:01:51;6.53;;;3.40;;
51465;SDS011;37542;50.164;9.086;2022-10-16T21:05:32;5.70;;;3.85;;
51465;SDS011;37542;50.164;9.086;2022-10-16T21:09:13;4.68;;;3.78;;
51465;SDS011;37542;50.164;9.086;2022-10-16T21:12:54;4.68;;;3.13;;
51465;SDS011;37542;50.164;9.086;2022-10-16T21:16:35;5.72;;;3.33;;
51465;SDS011;37542;50.164;9.086;2022-10-16T21:20:16;6.78;;;3.88;;
51465;SDS011;37542;50.164;9.086;2022-10-16T21:23:58;7.93;;;3.53;;
51465;SDS011;37542;50.164;9.086;2022-10-16T21:27:39;4.28;;;2.80;;
51465;SDS011;37542;50.164;9.086;2022-10-16T21:31:20;8.00;;;3.30;;
51465;SDS011;37542;50.164;9.086;2022-10-16T21:35:02;7.18;;;3.72;;
51465;SDS011;37542;50.164;9.086;2022-10-16T21:38:43;11.38;;;4.22;;
51465;SDS011;37542;50.164;9.086;2022-10-16T21:42:25;16.42;;;6.43;;
51465;SDS011;37542;50.164;9.086;2022-10-16T21:46:06;11.27;;;4.13;;
51465;SDS011;37542;50.164;9.086;2022-10-16T21:49:47;6.07;;;3.47;;
51465;SDS011;37542;50.164;9.086;2022-10-16T21:53:28;6.97;;;3.35;;
51465;SDS011;37542;50.164;9.086;2022-10-16T21:57:08;7.85;;;3.72;;
51465;SDS011;37542;50.164;9.086;2022-10-16T22:00:49;8.45;;;4.38;;
51465;SDS011;37542;50.164;9.086;2022-10-16T22:04:30;9.40;;;4.50;;
51465;SDS011;37542;50.164;9.086;2022-10-16T22:08:11;11.70;;;4.00;;
51465;SDS011;37542;50.164;9.086;2022-10-16T22:11:51;9.85;;;4.57;;
51465;SDS011;37542;50.164;9.086;2022-10-16T22:15:32;13.85;;;4.75;;
51465;SDS011;37542;50.164;9.086;2022-10-16T22:19:14;9.18;;;4.82;;
51465;SDS011;37542;50.164;9.086;2022-10-16T22:22:58;9.75;;;4.28;;
51465;SDS011;37542;50.164;9.086;2022-10-16T22:26:39;10.05;;;4.20;;
51465;SDS011;37542;50.164;9.086;2022-10-16T22:30:21;6.80;;;4.22;;
51465;SDS011;37542;50.164;9.086;2022-10-16T22:34:02;7.78;;;3.97;;
51465;SDS011;37542;50.164;9.086;2022-10-16T22:37:43;9.75;;;4.20;;
51465;SDS011;37542;50.164;9.086;2022-10-16T22:41:24;9.85;;;4.30;;
51465;SDS011;37542;50.164;9.086;2022-10-16T22:45:05;6.57;;;3.60;;
51465;SDS011;37542;50.164;9.086;2022-10-16T22:48:46;7.68;;;3.38;;
51465;SDS011;37542;50.164;9.086;2022-10-16T22:52:29;7.60;;;3.58;;
51465;SDS011;37542;50.164;9.086;2022-10-16T22:56:12;7.45;;;3.53;;
51465;SDS011;37542;50.164;9.086;2022-10-16T22:59:54;6.57;;;3.97;;
51465;SDS011;37542;50.164;9.086;2022-10-16T23:03:35;6.00;;;3.83;;
51465;SDS011;37542;50.164;9.086;2022-10-16T23:07:16;5.45;;;3.35;;
51465;SDS011;37542;50.164;9.086;2022-10-16T23:10:57;5.82;;;3.65;;
51465;SDS011;37542;50.164;9.086;2022-10-16T23:14:40;6.22;;;3.58;;
51465;SDS011;37542;50.164;9.086;2022-10-16T23:18:21;4.32;;;3.60;;
51465;SDS011;37542;50.164;9.086;2022-10-16T23:22:02;4.82;;;3.20;;
51465;SDS011;37542;50.164;9.086;2022-10-16T23:25:44;3.78;;;2.30;;
51465;SDS011;37542;50.164;9.086;2022-10-16T23:29:26;4.75;;;1.75;;
51465;SDS011;37542;50.164;9.086;2022-10-16T23:33:07;3.88;;;2.33;;
51465;SDS011;37542;50.164;9.086;2022-10-16T23:36:48;4.38;;;2.58;;
51465;SDS011;37542;50.164;9.086;2022-10-16T23:40:29;5.88;;;2.63;;
51465;SDS011;37542;50.164;9.086;2022-10-16T23:44:10;5.65;;;2.97;;
51465;SDS011;37542;50.164;9.086;2022-10-16T23:47:51;9.65;;;2.88;;
51465;SDS011;37542;50.164;9.086;2022-10-16T23:51:31;8.27;;;2.78;;
51465;SDS011;37542;50.164;9.086;2022-10-16T23:55:12;10.82;;;2.83;;
51465;SDS011;37542;50.164;9.086;2022-10-16T23:58:53;4.88;;;2.40;;
